Time;durP1;ratioP1;P1;durP2;ratioP2;P2;SDS_P1;SDS_P2;PMS_P1;PMS_P2;Temp;Humidity;BMP_temperature;BMP_pressure;BME280_temperature;BME280_humidity;BME280_pressure;Samples;Min_cycle;Max_cycle;Signal;HPM_P1;HPM_P2
2021/12/13 00:02:20;;;;;;;6.03;4.90;;;7.70;99.90;;;;;;5014847;28;20466;-54
2021/12/13 00:04:55;;;;;;;8.40;5.23;;;7.70;99.90;;;;;;5008367;28;20542;-54
2021/12/13 00:07:27;;;;;;;11.10;5.50;;;7.60;99.90;;;;;;5015665;28;21078;-57
2021/12/13 00:09:56;;;;;;;8.57;5.00;;;7.50;99.90;;;;;;5011876;28;20450;-54
2021/12/13 00:12:33;;;;;;;9.10;5.47;;;7.50;99.90;;;;;;5008449;28;20467;-57
2021/12/13 00:15:01;;;;;;;10.87;6.07;;;7.50;99.90;;;;;;5014105;28;20454;-57
2021/12/13 00:17:36;;;;;;;11.83;5.10;;;7.50;99.90;;;;;;5018224;28;20885;-55
2021/12/13 00:20:36;;;;;;;8.63;6.23;;;7.60;99.90;;;;;;5016333;28;20425;-57
2021/12/13 00:23:16;;;;;;;10.60;6.23;;;7.60;99.90;;;;;;5005636;28;20451;-53
2021/12/13 00:25:45;;;;;;;10.13;5.20;;;7.50;99.90;;;;;;5011192;28;21027;-57
2021/12/13 00:28:13;;;;;;;12.40;6.17;;;7.50;99.90;;;;;;5009121;28;20537;-54
2021/12/13 00:31:03;;;;;;;8.20;6.13;;;7.50;99.90;;;;;;5012604;28;20467;-56
2021/12/13 00:34:07;;;;;;;12.40;7.20;;;7.50;99.90;;;;;;5015098;28;20439;-58
2021/12/13 00:36:44;;;;;;;6.20;4.73;;;7.50;99.90;;;;;;5015622;28;20507;-59
2021/12/13 00:39:20;;;;;;;7.63;5.80;;;7.50;99.90;;;;;;5011287;28;20469;-54
2021/12/13 00:41:48;;;;;;;9.83;5.60;;;7.40;99.90;;;;;;5013967;28;20602;-54
2021/12/13 00:44:22;;;;;;;7.33;5.90;;;7.50;99.90;;;;;;5010420;28;20451;-56
2021/12/13 00:46:51;;;;;;;8.60;5.97;;;7.40;99.90;;;;;;5013280;28;20813;-53
2021/12/13 00:49:20;;;;;;;8.87;5.50;;;7.40;99.90;;;;;;5014766;28;20946;-56
2021/12/13 00:51:50;;;;;;;10.70;7.07;;;7.40;99.90;;;;;;5011707;28;21018;-56
2021/12/13 00:54:23;;;;;;;6.70;5.80;;;7.40;99.90;;;;;;5015110;28;20767;-56
2021/12/13 00:57:36;;;;;;;8.50;5.50;;;7.40;99.90;;;;;;5012507;28;20450;-53
2021/12/13 01:00:10;;;;;;;9.73;6.33;;;7.40;99.90;;;;;;4986637;28;20820;-58
2021/12/13 01:02:40;;;;;;;9.80;6.03;;;7.50;99.90;;;;;;5011164;28;20470;-54
2021/12/13 01:05:11;;;;;;;7.53;5.70;;;7.40;99.90;;;;;;5009363;28;20447;-57
2021/12/13 01:08:03;;;;;;;13.53;5.63;;;7.50;99.90;;;;;;5014676;28;20450;-51
2021/12/13 01:10:53;;;;;;;8.20;5.70;;;7.50;99.90;;;;;;5015118;28;20467;-58
2021/12/13 01:13:26;;;;;;;10.10;5.63;;;7.50;99.90;;;;;;5008806;28;20439;-54
2021/12/13 01:16:02;;;;;;;6.90;5.47;;;7.50;99.90;;;;;;5007795;28;20449;-57
2021/12/13 01:21:59;;;;;;;8.40;5.70;;;7.50;99.90;;;;;;5009884;28;22513;-57
2021/12/13 01:27:42;;;;;;;12.63;6.37;;;7.40;99.90;;;;;;5001644;28;20451;-56
2021/12/13 01:30:12;;;;;;;9.43;6.03;;;7.50;99.90;;;;;;5015298;28;21204;-56
2021/12/13 01:32:43;;;;;;;11.33;6.13;;;7.50;99.90;;;;;;5010649;28;20464;-53
2021/12/13 01:35:24;;;;;;;8.70;5.50;;;7.60;99.90;;;;;;5017055;28;20439;-54
2021/12/13 01:37:53;;;;;;;6.63;5.37;;;7.60;99.90;;;;;;5011890;28;20460;-55
2021/12/13 01:40:26;;;;;;;8.60;5.80;;;7.50;99.90;;;;;;5014481;28;20897;-58
2021/12/13 01:43:26;;;;;;;7.23;5.43;;;7.60;99.90;;;;;;5015970;28;20479;-53
2021/12/13 01:45:54;;;;;;;9.33;5.50;;;7.60;99.90;;;;;;4995627;28;20443;-54
2021/12/13 01:48:45;;;;;;;8.23;5.30;;;7.50;99.90;;;;;;5017968;28;20463;-53
2021/12/13 01:51:19;;;;;;;6.10;5.47;;;7.40;99.90;;;;;;5010860;28;20844;-57
2021/12/13 01:53:52;;;;;;;7.67;5.30;;;7.50;99.90;;;;;;5014980;28;20440;-57
2021/12/13 01:56:43;;;;;;;8.00;6.03;;;7.50;99.90;;;;;;5017253;28;20971;-57
2021/12/13 02:02:22;;;;;;;7.23;5.00;;;7.40;99.90;;;;;;5012005;28;20470;-54
2021/12/13 02:05:09;;;;;;;8.57;4.70;;;7.40;99.90;;;;;;5008536;28;20446;-57
2021/12/13 02:07:50;;;;;;;6.20;5.20;;;7.50;99.90;;;;;;5018685;28;20947;-56
2021/12/13 02:10:30;;;;;;;7.40;4.80;;;7.40;99.90;;;;;;5008912;28;20450;-53
2021/12/13 02:13:03;;;;;;;11.43;4.73;;;7.40;99.90;;;;;;5023192;28;20525;-55
2021/12/13 02:18:20;;;;;;;6.17;4.53;;;7.40;99.90;;;;;;5024550;28;20524;-54
2021/12/13 02:20:52;;;;;;;7.47;5.03;;;7.30;99.90;;;;;;5018853;28;20503;-57
2021/12/13 02:23:20;;;;;;;7.73;4.60;;;7.30;99.90;;;;;;5014116;28;20435;-52
2021/12/13 02:25:50;;;;;;;6.63;5.17;;;7.30;99.90;;;;;;5025382;28;20442;-54
2021/12/13 02:28:23;;;;;;;7.37;4.70;;;7.20;99.90;;;;;;5020058;28;20663;-55
2021/12/13 02:31:00;;;;;;;10.93;5.30;;;7.20;99.90;;;;;;5016810;28;20470;-55
2021/12/13 02:33:36;;;;;;;5.90;4.90;;;7.10;99.90;;;;;;5022667;28;20442;-56
2021/12/13 02:36:09;;;;;;;9.80;5.33;;;7.20;99.90;;;;;;5021186;28;20469;-57
2021/12/13 02:38:37;;;;;;;7.93;5.50;;;7.20;99.90;;;;;;5020991;28;20495;-56
2021/12/13 02:41:04;;;;;;;11.03;5.30;;;7.30;99.90;;;;;;5024331;28;20462;-56
2021/12/13 02:43:34;;;;;;;7.80;5.03;;;7.20;99.90;;;;;;5020603;28;20479;-56
2021/12/13 02:46:00;;;;;;;8.20;4.77;;;7.20;99.90;;;;;;5022202;28;20854;-56
2021/12/13 02:48:36;;;;;;;6.00;5.03;;;7.30;99.90;;;;;;5019186;28;20671;-55
2021/12/13 02:51:16;;;;;;;7.30;4.90;;;7.30;99.90;;;;;;5018450;28;20488;-56
2021/12/13 02:54:16;;;;;;;7.93;5.53;;;7.30;99.90;;;;;;5015221;28;20431;-57
2021/12/13 02:57:06;;;;;;;9.20;5.23;;;7.30;99.90;;;;;;5009629;28;20473;-57
2021/12/13 02:59:37;;;;;;;6.20;5.13;;;7.20;99.90;;;;;;5020590;28;20531;-53
2021/12/13 03:02:14;;;;;;;9.40;6.17;;;7.20;99.90;;;;;;5019657;28;20505;-56
2021/12/13 03:04:41;;;;;;;7.27;5.47;;;7.30;99.90;;;;;;5020014;28;20441;-55
2021/12/13 03:07:21;;;;;;;6.80;5.67;;;7.20;99.90;;;;;;5018444;28;20434;-56
2021/12/13 03:09:51;;;;;;;9.23;6.20;;;7.30;99.90;;;;;;5020157;28;20831;-58
2021/12/13 03:12:20;;;;;;;10.50;6.63;;;7.30;99.90;;;;;;5021173;28;20475;-55
2021/12/13 03:14:51;;;;;;;7.10;6.03;;;7.30;99.90;;;;;;5019471;28;20823;-57
2021/12/13 03:17:48;;;;;;;10.60;6.80;;;7.30;99.90;;;;;;5018351;28;20438;-57
2021/12/13 03:20:38;;;;;;;8.20;7.07;;;7.30;99.90;;;;;;5017995;28;20495;-55
2021/12/13 03:23:29;;;;;;;9.13;6.13;;;7.40;99.90;;;;;;5019644;28;20442;-53
2021/12/13 03:26:26;;;;;;;9.43;6.50;;;7.40;99.90;;;;;;5016386;28;21312;-53
2021/12/13 03:29:06;;;;;;;8.17;5.80;;;7.40;99.90;;;;;;5016538;28;20479;-52
2021/12/13 03:31:38;;;;;;;9.60;7.20;;;7.40;99.90;;;;;;5021167;28;20495;-52
2021/12/13 03:34:08;;;;;;;10.90;6.00;;;7.30;99.90;;;;;;5014908;28;20959;-54
2021/12/13 03:36:49;;;;;;;9.50;5.90;;;7.30;99.90;;;;;;5019868;28;20439;-53
2021/12/13 03:39:29;;;;;;;14.03;6.40;;;7.40;99.90;;;;;;5013417;28;20889;-55
2021/12/13 03:41:58;;;;;;;10.47;6.20;;;7.30;99.90;;;;;;5022919;28;21036;-53
2021/12/13 03:44:31;;;;;;;9.63;5.50;;;7.20;99.90;;;;;;5019263;28;20451;-53
2021/12/13 03:47:08;;;;;;;10.03;6.40;;;7.20;99.90;;;;;;5018240;28;20802;-55
2021/12/13 03:49:45;;;;;;;12.37;6.50;;;7.20;99.90;;;;;;5022726;28;20434;-55
2021/12/13 03:52:15;;;;;;;8.40;6.90;;;7.30;99.90;;;;;;5014315;28;20561;-53
2021/12/13 03:54:43;;;;;;;10.77;6.63;;;7.40;99.90;;;;;;5020174;28;20429;-55
2021/12/13 03:57:09;;;;;;;9.67;5.90;;;7.30;99.90;;;;;;5020792;28;20480;-55
2021/12/13 03:59:39;;;;;;;8.30;5.63;;;7.30;99.90;;;;;;5018913;28;20464;-54
2021/12/13 04:02:16;;;;;;;7.00;5.77;;;7.30;99.90;;;;;;5016699;28;21018;-55
2021/12/13 04:04:49;;;;;;;7.60;5.90;;;7.20;99.90;;;;;;5018244;28;20447;-55
2021/12/13 04:07:23;;;;;;;8.80;6.20;;;7.30;99.90;;;;;;5017198;28;20439;-54
2021/12/13 04:09:55;;;;;;;8.00;5.80;;;7.30;99.90;;;;;;5022378;28;20435;-55
2021/12/13 04:12:32;;;;;;;11.13;5.90;;;7.30;99.90;;;;;;5014412;28;20558;-53
2021/12/13 04:15:11;;;;;;;8.70;6.20;;;7.20;99.90;;;;;;5018378;28;20435;-55
2021/12/13 04:17:44;;;;;;;9.33;5.93;;;7.30;99.90;;;;;;5020426;28;20489;-52
2021/12/13 04:20:19;;;;;;;9.90;6.00;;;7.40;99.90;;;;;;5012133;28;20436;-54
2021/12/13 04:22:53;;;;;;;9.93;6.20;;;7.30;99.90;;;;;;5016139;28;20442;-54
2021/12/13 04:25:26;;;;;;;7.27;5.53;;;7.40;99.90;;;;;;5019749;28;20438;-57
2021/12/13 04:28:03;;;;;;;7.53;6.07;;;7.40;99.90;;;;;;5015988;28;20545;-57
2021/12/13 04:30:31;;;;;;;7.40;5.37;;;7.40;99.90;;;;;;5021902;28;20474;-56
2021/12/13 04:33:22;;;;;;;8.37;6.47;;;7.40;99.90;;;;;;5019220;28;20484;-56
2021/12/13 04:35:51;;;;;;;7.10;5.47;;;7.50;99.90;;;;;;5015534;28;20510;-56
2021/12/13 04:38:21;;;;;;;7.00;5.40;;;7.50;99.90;;;;;;5020071;28;20451;-55
2021/12/13 04:40:47;;;;;;;5.90;5.17;;;7.50;99.90;;;;;;5013859;28;21387;-54
2021/12/13 04:43:17;;;;;;;8.13;5.20;;;7.50;99.90;;;;;;5016380;28;20447;-57
2021/12/13 04:45:52;;;;;;;7.57;5.37;;;7.40;99.90;;;;;;5012070;28;20187;-54
2021/12/13 04:48:21;;;;;;;8.10;5.60;;;7.50;99.90;;;;;;5021903;28;20449;-54
2021/12/13 04:50:54;;;;;;;6.13;5.00;;;7.40;99.90;;;;;;5016959;28;20548;-54
2021/12/13 04:53:31;;;;;;;8.20;5.77;;;7.40;99.90;;;;;;5018247;28;20443;-56
2021/12/13 04:56:00;;;;;;;9.33;6.20;;;7.40;99.90;;;;;;5016265;28;20944;-55
2021/12/13 04:58:26;;;;;;;6.13;5.53;;;7.40;99.90;;;;;;5013793;28;20497;-53
2021/12/13 05:00:55;;;;;;;7.70;5.13;;;7.30;99.90;;;;;;5021040;28;20494;-52
2021/12/13 05:03:27;;;;;;;7.60;5.67;;;7.30;99.90;;;;;;5016512;28;20439;-55
2021/12/13 05:05:53;;;;;;;7.13;5.40;;;7.20;99.90;;;;;;5014336;28;20458;-55
2021/12/13 05:08:20;;;;;;;10.83;6.60;;;7.20;99.90;;;;;;5016780;28;20450;-55
2021/12/13 05:10:49;;;;;;;8.20;5.73;;;7.20;99.90;;;;;;5014660;28;20217;-55
2021/12/13 05:13:20;;;;;;;9.50;6.33;;;7.20;99.90;;;;;;5016731;28;20435;-55
2021/12/13 05:16:07;;;;;;;5.87;5.27;;;7.30;99.90;;;;;;5013975;28;21117;-52
2021/12/13 05:18:33;;;;;;;6.23;5.23;;;7.40;99.90;;;;;;5018566;28;20526;-55
2021/12/13 05:21:15;;;;;;;10.33;6.27;;;7.50;99.90;;;;;;5017885;28;21185;-54
2021/12/13 05:24:12;;;;;;;10.53;5.70;;;7.50;99.90;;;;;;5015615;28;20192;-55
2021/12/13 05:26:47;;;;;;;7.37;5.70;;;7.50;99.90;;;;;;4984035;28;20545;-56
2021/12/13 05:29:40;;;;;;;6.93;5.80;;;7.40;99.90;;;;;;5013090;28;20423;-56
2021/12/13 05:32:21;;;;;;;6.17;4.97;;;7.50;99.90;;;;;;5012801;28;20474;-52
2021/12/13 05:34:52;;;;;;;7.80;6.13;;;7.40;99.90;;;;;;5011515;28;20447;-54
2021/12/13 05:37:19;;;;;;;10.93;6.43;;;7.40;99.90;;;;;;5020702;28;20516;-56
2021/12/13 05:40:04;;;;;;;6.07;5.00;;;7.40;99.90;;;;;;5016553;28;20942;-56
2021/12/13 05:42:43;;;;;;;7.97;5.47;;;7.30;99.90;;;;;;5021345;28;21046;-56
2021/12/13 05:45:16;;;;;;;7.30;5.90;;;7.40;99.90;;;;;;5014067;28;20431;-55
2021/12/13 05:48:19;;;;;;;6.00;5.20;;;7.30;99.90;;;;;;5021616;28;20489;-52
2021/12/13 05:50:58;;;;;;;8.70;5.10;;;7.30;99.90;;;;;;5018874;28;20485;-56
2021/12/13 05:53:28;;;;;;;7.70;5.60;;;7.40;99.90;;;;;;5017889;28;20431;-53
2021/12/13 05:55:57;;;;;;;8.07;4.70;;;7.40;99.90;;;;;;5022803;28;20492;-56
2021/12/13 05:58:37;;;;;;;9.17;5.30;;;7.30;99.90;;;;;;5023746;28;20505;-54
2021/12/13 06:01:12;;;;;;;9.77;5.33;;;7.20;99.90;;;;;;5022335;28;20470;-55
2021/12/13 06:03:42;;;;;;;7.87;5.37;;;7.30;99.90;;;;;;5023128;28;20491;-55
2021/12/13 06:06:13;;;;;;;8.83;5.47;;;7.30;99.90;;;;;;5019473;28;20454;-56
2021/12/13 06:08:44;;;;;;;5.77;4.90;;;7.50;99.90;;;;;;5021676;28;20460;-56
2021/12/13 06:11:21;;;;;;;5.63;4.50;;;7.50;99.90;;;;;;5016942;28;20547;-57
2021/12/13 06:13:55;;;;;;;9.27;5.37;;;7.50;99.90;;;;;;5023364;28;20431;-54
2021/12/13 06:16:23;;;;;;;7.07;4.67;;;7.40;99.90;;;;;;5024566;28;20430;-54
2021/12/13 06:19:04;;;;;;;6.50;5.20;;;7.30;99.90;;;;;;5025520;28;20439;-57
2021/12/13 06:21:51;;;;;;;8.97;5.40;;;7.30;99.90;;;;;;5023157;28;20471;-56
2021/12/13 06:24:26;;;;;;;5.30;4.80;;;7.20;99.90;;;;;;5025823;28;20465;-55
2021/12/13 06:27:08;;;;;;;7.70;5.43;;;7.30;99.90;;;;;;5023785;28;20434;-55
2021/12/13 06:29:52;;;;;;;7.83;4.87;;;7.30;99.90;;;;;;5017021;28;20441;-55
2021/12/13 06:32:48;;;;;;;9.30;5.00;;;7.20;99.90;;;;;;5023626;28;20965;-57
2021/12/13 06:35:39;;;;;;;9.00;4.77;;;7.20;99.90;;;;;;5021931;28;20447;-56
2021/12/13 06:38:19;;;;;;;8.23;4.90;;;7.10;99.90;;;;;;5017760;28;20434;-57
2021/12/13 06:40:49;;;;;;;8.10;4.60;;;7.20;99.90;;;;;;5022770;28;20532;-57
2021/12/13 06:43:52;;;;;;;7.40;5.03;;;7.20;99.90;;;;;;5013571;28;20527;-56
2021/12/13 06:46:24;;;;;;;7.33;5.00;;;7.30;99.90;;;;;;5010062;28;20443;-55
2021/12/13 06:48:49;;;;;;;8.30;5.30;;;7.20;99.90;;;;;;5017671;28;20451;-55
2021/12/13 06:51:18;;;;;;;6.10;5.50;;;7.30;99.90;;;;;;5014469;28;20469;-54
2021/12/13 06:54:06;;;;;;;6.63;5.43;;;7.50;99.90;;;;;;5016701;28;20195;-57
2021/12/13 06:56:34;;;;;;;7.63;5.73;;;7.60;99.90;;;;;;5017617;28;21220;-51
2021/12/13 06:59:02;;;;;;;7.50;5.90;;;7.70;99.90;;;;;;5020383;28;20463;-57
2021/12/13 07:01:31;;;;;;;10.60;6.10;;;7.80;99.90;;;;;;5021775;28;20540;-57
2021/12/13 07:04:04;;;;;;;9.87;6.83;;;7.80;99.90;;;;;;5015628;28;20486;-57
2021/12/13 07:06:30;;;;;;;12.80;6.70;;;7.70;99.90;;;;;;5020522;28;20467;-56
2021/12/13 07:09:16;;;;;;;8.10;6.50;;;7.70;99.90;;;;;;5022353;28;20475;-57
2021/12/13 07:11:53;;;;;;;11.93;7.17;;;7.70;99.90;;;;;;5014168;28;20471;-57
2021/12/13 07:14:22;;;;;;;8.53;6.43;;;7.60;99.90;;;;;;5024472;28;20492;-58
2021/12/13 07:16:52;;;;;;;8.37;6.20;;;7.60;99.90;;;;;;5020743;28;22494;-56
2021/12/13 07:19:24;;;;;;;10.50;6.83;;;7.60;99.90;;;;;;5022261;28;20445;-55
2021/12/13 07:22:03;;;;;;;10.37;6.80;;;7.50;99.90;;;;;;5018405;28;20474;-57
2021/12/13 07:24:42;;;;;;;15.00;7.17;;;7.40;99.90;;;;;;5013389;28;20501;-55
2021/12/13 07:27:13;;;;;;;9.50;7.40;;;7.40;99.90;;;;;;5015062;28;20427;-58
2021/12/13 07:29:46;;;;;;;10.23;7.57;;;7.30;99.90;;;;;;5018815;28;20807;-56
2021/12/13 07:32:29;;;;;;;21.73;7.23;;;7.30;99.90;;;;;;5019476;28;20874;-59
2021/12/13 07:35:20;;;;;;;11.63;6.70;;;7.50;99.90;;;;;;5013584;28;20459;-56
2021/12/13 07:37:56;;;;;;;9.57;7.07;;;7.70;99.90;;;;;;5019930;28;20444;-57
2021/12/13 07:40:34;;;;;;;11.67;8.13;;;7.70;99.90;;;;;;5018993;28;20447;-58
2021/12/13 07:43:14;;;;;;;13.97;8.27;;;7.70;99.90;;;;;;5015485;28;20427;-57
2021/12/13 07:45:46;;;;;;;11.83;7.50;;;7.80;99.90;;;;;;5019538;28;20491;-58
2021/12/13 07:48:19;;;;;;;10.77;8.13;;;7.90;99.90;;;;;;5017730;28;20427;-59
2021/12/13 07:50:55;;;;;;;17.37;9.03;;;7.80;99.90;;;;;;5015044;28;20579;-56
2021/12/13 07:53:24;;;;;;;15.33;7.93;;;7.80;99.90;;;;;;5014877;28;20532;-56
2021/12/13 07:55:50;;;;;;;17.80;8.30;;;7.60;99.90;;;;;;5018202;28;20975;-58
2021/12/13 07:58:33;;;;;;;11.30;8.70;;;7.50;99.90;;;;;;5017311;28;20469;-58
2021/12/13 08:01:40;;;;;;;15.70;8.83;;;7.60;99.90;;;;;;5017219;28;20208;-58
2021/12/13 08:04:10;;;;;;;11.13;7.90;;;7.70;99.90;;;;;;4935318;28;20470;-59
2021/12/13 08:06:45;;;;;;;17.10;9.53;;;7.60;99.90;;;;;;5007449;28;20455;-57
2021/12/13 08:09:14;;;;;;;14.97;8.63;;;7.80;99.90;;;;;;5018213;28;20443;-58
2021/12/13 08:11:50;;;;;;;14.37;9.30;;;7.80;99.90;;;;;;5020042;28;20525;-59
2021/12/13 08:14:27;;;;;;;12.50;8.93;;;7.80;99.90;;;;;;5018615;28;21025;-58
2021/12/13 08:16:53;;;;;;;14.23;9.00;;;7.90;99.90;;;;;;5014849;28;20541;-59
2021/12/13 08:19:24;;;;;;;16.40;9.57;;;7.80;99.90;;;;;;5019635;28;20974;-59
2021/12/13 08:21:55;;;;;;;14.07;9.10;;;7.70;99.90;;;;;;5020566;28;20219;-59
2021/12/13 08:24:40;;;;;;;26.50;13.10;;;7.50;99.90;;;;;;5020453;28;20841;-58
2021/12/13 08:27:27;;;;;;;21.73;13.20;;;7.60;99.90;;;;;;5017117;28;20443;-58
2021/12/13 08:30:09;;;;;;;13.93;10.10;;;7.90;99.90;;;;;;5019192;28;20454;-58
2021/12/13 08:32:35;;;;;;;15.13;9.90;;;7.80;99.90;;;;;;5021268;28;20491;-59
2021/12/13 08:35:03;;;;;;;15.73;10.13;;;7.70;99.90;;;;;;5011879;28;20546;-58
2021/12/13 08:37:33;;;;;;;12.97;9.73;;;7.70;99.90;;;;;;5016234;28;20439;-58
2021/12/13 08:40:10;;;;;;;15.10;8.97;;;7.60;99.90;;;;;;5016955;28;20480;-59
2021/12/13 08:42:39;;;;;;;13.60;9.77;;;7.80;99.90;;;;;;5015901;28;20867;-58
2021/12/13 08:45:21;;;;;;;12.63;9.00;;;7.90;99.90;;;;;;5020540;28;20493;-60
2021/12/13 08:47:51;;;;;;;15.33;9.77;;;8.10;99.90;;;;;;5020451;28;20475;-60
2021/12/13 08:50:31;;;;;;;13.20;9.40;;;8.10;99.90;;;;;;5019574;28;20471;-59
2021/12/13 08:53:07;;;;;;;13.20;8.83;;;7.80;99.90;;;;;;5016760;28;20557;-59
2021/12/13 08:55:37;;;;;;;18.43;9.97;;;7.80;99.90;;;;;;5014679;28;20952;-59
2021/12/13 08:58:12;;;;;;;11.63;8.63;;;7.80;99.90;;;;;;5015714;28;20883;-59
2021/12/13 09:01:07;;;;;;;14.67;10.13;;;7.80;99.90;;;;;;5015831;28;21013;-59
2021/12/13 09:03:41;;;;;;;13.20;8.67;;;8.10;99.90;;;;;;5016603;28;20955;-59
2021/12/13 09:06:16;;;;;;;14.30;9.70;;;7.90;99.90;;;;;;5016698;28;20820;-57
2021/12/13 09:08:54;;;;;;;13.10;8.30;;;7.80;99.90;;;;;;5021504;28;20465;-56
2021/12/13 09:11:19;;;;;;;16.03;9.57;;;7.90;99.90;;;;;;5015121;28;20463;-59
2021/12/13 09:13:56;;;;;;;13.47;9.53;;;7.80;99.90;;;;;;5016250;28;20450;-59
2021/12/13 09:16:47;;;;;;;11.33;10.13;;;8.10;99.90;;;;;;5015657;28;20235;-59
2021/12/13 09:19:25;;;;;;;13.50;9.30;;;8.00;99.90;;;;;;5018744;28;20445;-59
2021/12/13 09:22:09;;;;;;;20.07;9.93;;;8.30;99.90;;;;;;5017601;28;20463;-58
2021/12/13 09:24:47;;;;;;;12.63;8.97;;;8.30;99.90;;;;;;5015824;28;20450;-59
2021/12/13 09:27:29;;;;;;;18.33;10.30;;;8.30;99.90;;;;;;5018419;28;20454;-59
2021/12/13 09:30:12;;;;;;;26.73;10.20;;;8.00;99.90;;;;;;5019307;28;20584;-60
2021/12/13 09:32:49;;;;;;;12.70;9.40;;;7.90;99.90;;;;;;5021071;28;20467;-59
2021/12/13 09:35:31;;;;;;;14.53;10.13;;;8.00;99.90;;;;;;5014138;28;20542;-60
2021/12/13 09:38:01;;;;;;;22.73;10.37;;;8.20;99.90;;;;;;5017603;28;20474;-60
2021/12/13 09:40:40;;;;;;;14.07;8.97;;;8.20;99.90;;;;;;5016585;28;20902;-60
2021/12/13 09:43:07;;;;;;;15.10;8.77;;;8.30;99.90;;;;;;5016792;28;20526;-59
2021/12/13 09:45:46;;;;;;;13.83;8.63;;;8.30;99.90;;;;;;5017929;28;20439;-59
2021/12/13 09:48:28;;;;;;;12.07;7.90;;;8.40;99.90;;;;;;5019705;28;20435;-60
2021/12/13 09:51:00;;;;;;;10.50;7.43;;;8.50;99.90;;;;;;5020217;28;20566;-58
2021/12/13 09:53:33;;;;;;;10.10;8.10;;;8.40;99.90;;;;;;5017701;28;20470;-58
2021/12/13 09:56:04;;;;;;;9.70;7.87;;;8.40;99.90;;;;;;5018615;28;20442;-58
2021/12/13 09:58:52;;;;;;;10.33;6.60;;;8.60;99.90;;;;;;5016010;28;20439;-59
2021/12/13 10:01:25;;;;;;;12.27;8.43;;;8.40;99.90;;;;;;5016823;28;20459;-59
2021/12/13 10:04:09;;;;;;;12.27;8.27;;;8.50;99.90;;;;;;5016552;28;20477;-59
2021/12/13 10:06:43;;;;;;;10.07;7.23;;;8.90;99.90;;;;;;5018923;28;20446;-59
2021/12/13 10:09:11;;;;;;;10.67;7.70;;;8.80;99.90;;;;;;5020200;28;20446;-58
2021/12/13 10:11:43;;;;;;;13.20;7.33;;;8.60;99.90;;;;;;5014307;28;20478;-59
2021/12/13 10:14:11;;;;;;;11.23;6.93;;;8.70;99.90;;;;;;5018694;28;20482;-60
2021/12/13 10:16:41;;;;;;;9.37;7.30;;;8.80;99.90;;;;;;5017939;28;20457;-60
2021/12/13 10:19:11;;;;;;;10.37;7.90;;;9.10;99.90;;;;;;5017398;28;20446;-60
2021/12/13 10:21:40;;;;;;;9.40;6.50;;;9.40;99.90;;;;;;5017912;28;20496;-60
2021/12/13 10:24:15;;;;;;;10.00;6.63;;;9.50;99.90;;;;;;5017389;28;20447;-60
2021/12/13 10:26:44;;;;;;;10.13;6.47;;;9.70;99.90;;;;;;5020346;28;20469;-60
2021/12/13 10:29:12;;;;;;;8.60;7.07;;;9.80;99.90;;;;;;5015896;28;20450;-60
2021/12/13 10:31:50;;;;;;;8.87;6.53;;;9.90;99.90;;;;;;5017381;28;20466;-60
2021/12/13 10:34:27;;;;;;;8.83;6.40;;;10.10;99.90;;;;;;5020963;28;20439;-59
2021/12/13 10:36:59;;;;;;;10.40;6.27;;;10.10;99.90;;;;;;5018366;28;20443;-59
2021/12/13 10:39:31;;;;;;;8.60;6.83;;;10.10;99.90;;;;;;5018668;28;24446;-59
2021/12/13 10:42:00;;;;;;;10.67;6.10;;;10.10;99.90;;;;;;5016030;28;20549;-60
2021/12/13 10:44:29;;;;;;;7.57;5.73;;;10.00;99.90;;;;;;5019537;28;20559;-59
2021/12/13 10:47:07;;;;;;;6.90;5.83;;;10.10;99.90;;;;;;5010958;28;20470;-59
2021/12/13 10:49:38;;;;;;;9.17;6.00;;;10.20;99.90;;;;;;5022669;28;20437;-59
2021/12/13 10:52:07;;;;;;;13.47;6.57;;;10.30;99.90;;;;;;5018653;28;20517;-60
2021/12/13 10:54:43;;;;;;;8.63;6.37;;;10.40;99.90;;;;;;5022253;28;20454;-59
2021/12/13 10:57:16;;;;;;;7.33;6.00;;;10.40;99.90;;;;;;5014832;28;20554;-60
2021/12/13 10:59:44;;;;;;;6.60;5.77;;;10.60;99.90;;;;;;5022330;28;20488;-60
2021/12/13 11:02:26;;;;;;;11.20;6.13;;;10.70;99.90;;;;;;5019004;28;20558;-60
2021/12/13 11:04:59;;;;;;;7.23;5.77;;;10.70;99.90;;;;;;5015185;28;20441;-55
2021/12/13 11:07:25;;;;;;;8.10;5.90;;;10.80;99.90;;;;;;5015166;28;20441;-56
2021/12/13 11:09:55;;;;;;;8.73;7.00;;;10.90;99.90;;;;;;5016932;28;20462;-58
2021/12/13 11:12:30;;;;;;;8.87;7.00;;;11.10;99.90;;;;;;5013987;28;21775;-58
2021/12/13 11:15:01;;;;;;;10.80;7.80;;;11.10;99.90;;;;;;5013431;28;20469;-58
2021/12/13 11:17:30;;;;;;;8.70;7.20;;;11.20;99.90;;;;;;5014308;28;21272;-57
2021/12/13 11:20:03;;;;;;;13.20;7.33;;;11.20;99.90;;;;;;5015263;28;20504;-59
2021/12/13 11:22:31;;;;;;;8.27;6.03;;;11.30;99.90;;;;;;5011652;28;20475;-59
2021/12/13 11:25:04;;;;;;;10.43;7.13;;;11.20;99.90;;;;;;5012559;28;20497;-60
2021/12/13 11:27:32;;;;;;;13.23;7.93;;;11.30;99.90;;;;;;5012258;28;20440;-60
2021/12/13 11:30:01;;;;;;;9.13;6.20;;;11.30;99.90;;;;;;5018440;28;20439;-60
2021/12/13 11:32:38;;;;;;;8.50;6.90;;;11.30;99.90;;;;;;5016418;28;20470;-59
2021/12/13 11:35:07;;;;;;;13.53;7.83;;;11.30;99.90;;;;;;5028875;28;20930;-61
2021/12/13 11:37:51;;;;;;;12.23;7.47;;;11.40;99.90;;;;;;5018952;28;20842;-60
2021/12/13 11:40:48;;;;;;;14.93;7.77;;;11.50;99.90;;;;;;5021587;28;20438;-60
2021/12/13 11:43:42;;;;;;;11.40;7.53;;;11.50;99.90;;;;;;5014593;28;20592;-60
2021/12/13 11:46:41;;;;;;;9.17;7.67;;;11.60;99.90;;;;;;5021627;28;20447;-60
2021/12/13 11:49:44;;;;;;;12.90;7.80;;;12.00;99.90;;;;;;5018517;28;20531;-60
2021/12/13 11:52:41;;;;;;;10.50;7.20;;;12.10;99.90;;;;;;5014439;28;20529;-61
2021/12/13 11:55:28;;;;;;;9.53;7.23;;;12.00;99.90;;;;;;5015978;28;20485;-59
2021/12/13 11:58:19;;;;;;;9.63;7.23;;;11.90;99.90;;;;;;5012097;28;20480;-60
2021/12/13 12:01:40;;;;;;;10.87;6.23;;;12.20;99.90;;;;;;5019500;28;20553;-60
2021/12/13 12:04:43;;;;;;;8.83;5.33;;;12.30;99.90;;;;;;5011627;28;20439;-59
2021/12/13 12:07:33;;;;;;;8.47;5.60;;;12.30;99.90;;;;;;5017887;28;20471;-60
2021/12/13 12:10:25;;;;;;;9.47;5.70;;;12.40;99.90;;;;;;5010651;28;20526;-59
2021/12/13 12:13:27;;;;;;;6.13;5.20;;;12.40;99.90;;;;;;5018917;28;20496;-59
2021/12/13 12:16:01;;;;;;;10.13;5.37;;;12.40;99.90;;;;;;5009149;28;20836;-60
2021/12/13 12:18:29;;;;;;;7.80;4.37;;;12.40;99.90;;;;;;5018750;28;20469;-59
2021/12/13 12:21:29;;;;;;;7.17;4.80;;;12.50;99.90;;;;;;5017391;28;20462;-59
2021/12/13 12:23:56;;;;;;;6.37;4.53;;;12.40;99.90;;;;;;5017386;28;20489;-60
2021/12/13 12:26:22;;;;;;;5.20;4.70;;;12.30;99.90;;;;;;5018671;28;20455;-60
2021/12/13 12:28:50;;;;;;;5.37;4.13;;;12.30;99.90;;;;;;5020336;28;21171;-59
2021/12/13 12:31:16;;;;;;;4.60;3.90;;;12.40;99.90;;;;;;5017649;28;20565;-59
2021/12/13 12:33:42;;;;;;;4.90;4.07;;;12.30;99.90;;;;;;5020367;28;20530;-61
2021/12/13 12:36:21;;;;;;;5.30;4.17;;;12.20;99.90;;;;;;5019651;28;21036;-60
2021/12/13 12:39:04;;;;;;;6.13;4.60;;;12.20;99.90;;;;;;5018578;28;20180;-59
2021/12/13 12:41:44;;;;;;;9.97;4.60;;;12.10;99.90;;;;;;5020900;28;20869;-60
2021/12/13 12:44:21;;;;;;;5.40;4.50;;;12.10;99.90;;;;;;5018577;28;20447;-60
2021/12/13 12:46:48;;;;;;;5.10;4.50;;;12.00;99.90;;;;;;5020038;28;20526;-60
2021/12/13 12:49:22;;;;;;;4.90;3.97;;;12.10;99.90;;;;;;5009172;28;22755;-59
2021/12/13 12:51:50;;;;;;;5.30;4.77;;;12.10;99.90;;;;;;5018469;28;20821;-59
2021/12/13 12:54:19;;;;;;;6.77;4.33;;;12.10;99.90;;;;;;5019200;28;20431;-59
2021/12/13 12:56:55;;;;;;;3.87;3.53;;;12.10;99.90;;;;;;5018467;28;20447;-59
2021/12/13 12:59:22;;;;;;;9.33;3.80;;;12.00;99.90;;;;;;5015751;28;20440;-60
2021/12/13 13:01:56;;;;;;;6.80;4.50;;;12.00;99.90;;;;;;5019254;28;20454;-59
2021/12/13 13:04:28;;;;;;;5.93;4.60;;;12.00;99.90;;;;;;5018585;28;20427;-59
2021/12/13 13:07:11;;;;;;;6.73;4.40;;;12.00;99.90;;;;;;5022273;28;20423;-59
2021/12/13 13:09:53;;;;;;;6.30;3.83;;;12.10;99.90;;;;;;5021907;28;20474;-60
2021/12/13 13:12:35;;;;;;;5.57;3.80;;;12.10;99.90;;;;;;5021218;28;20474;-60
2021/12/13 13:15:10;;;;;;;8.33;3.70;;;12.00;99.90;;;;;;5020746;28;20880;-60
2021/12/13 13:17:42;;;;;;;4.33;3.73;;;12.00;99.90;;;;;;5018098;28;20500;-59
2021/12/13 13:20:13;;;;;;;6.63;4.30;;;12.10;99.90;;;;;;5021117;28;20478;-60
2021/12/13 13:22:41;;;;;;;8.30;4.73;;;12.00;99.90;;;;;;5022663;28;20496;-58
2021/12/13 13:25:30;;;;;;;16.83;5.13;;;12.00;99.90;;;;;;5020581;28;20434;-60
2021/12/13 13:27:56;;;;;;;6.07;4.20;;;12.00;99.90;;;;;;5017423;28;20442;-59
2021/12/13 13:30:37;;;;;;;7.90;4.23;;;11.90;99.90;;;;;;5021865;28;20441;-60
2021/12/13 13:33:03;;;;;;;5.53;4.30;;;11.80;99.90;;;;;;5020021;28;20467;-59
2021/12/13 13:35:30;;;;;;;6.43;4.83;;;11.70;99.90;;;;;;5022347;28;20471;-59
2021/12/13 13:37:56;;;;;;;7.77;4.60;;;11.80;99.90;;;;;;5020293;28;20431;-58
2021/12/13 13:40:27;;;;;;;5.53;4.53;;;11.80;99.90;;;;;;5020555;28;20481;-58
2021/12/13 13:43:06;;;;;;;6.80;5.00;;;11.70;99.90;;;;;;5021161;28;20445;-61
2021/12/13 13:45:37;;;;;;;6.30;4.87;;;11.80;99.90;;;;;;5020641;28;20510;-60
2021/12/13 13:48:07;;;;;;;9.23;5.40;;;11.80;99.90;;;;;;5021253;28;21011;-60
2021/12/13 13:50:37;;;;;;;11.40;6.93;;;11.70;99.90;;;;;;5016686;28;21251;-59